Jalalabad Airport
OAJL : now visible

Airfield :











YOU CAN JOIN US ON...

 
LOGIN :

Register | Disclaimer

   EN    FR    IT 

 









Legend :    VFR   Marginal VFR   IFR   Intensive IFR   Very Intensive IFR
Visi :
Ceiling :
>= 8 km
>= 3000ft
5 to 8 km
1000 to 3000 ft
1500m to 5 km
500 to 1000 ft
800 to 1500m
200 to 500 ft
< 800m
< 200 ft
Symbols :   Thunderstorms  Fog  Heavy snow  Heavy precipitations  Wind > 20 kt






- Airport Elevation : 1814 ft
- IATA code : JAA


OAJL - Jalalabad

CURRENT METAR :
  • 062156Z AUTO VRB05KT 6000 RA FEW046 BKN065 13/12 A3008 RMK AO2 SLPNO WND DATA ESTMD P0010 T01310121

EXPIRED METARs :
  • 062056Z VRB06KT 9999 RA SCT050 BKN065 15/11 A3008 RMK AO2A LTG DSNT SE AND SW SHRAE18RAB18 TSB18E33 SLP168 WND DATA ESTMD P0007 60033 T01470113 52019 $
  • 062033Z 34003KT 9999 -RA VCTS SCT050 BKN075 15/11 A3008 RMK AO2A SHRAE18RAB18 TSB18E33 SLP172 WND DATA ESTMD
  • 062018Z 30006KT 9999 -TSRA BKN065 BKN080 15/11 A3007 RMK AO2A SHRAE18RAB18 TSB18 SLP166 WND DATA ESTMD
  • 061956Z VRB05G14KT 9999 -SHRA VCTS BKN070 BKN095 15/10 A3007 RMK AO2A RAE16SHRAB22 TSE06 SLP165 WND DATA ESTMD P0002 T01480103 402430123
  • 061922Z AUTO 31012G21KT 270V340 9999 -SHRA VCTS SCT080 BKN095 BKN120 16/10 A3006 RMK AO2 RAE16SHRAB22 TSE06 SLPNO WND DATA ESTMD
  • 061916Z AUTO 33013G21KT 9999 SCT080 BKN110 16/11 A3006 RMK AO2 LTG DSNT W-E RAE16 TSE06 SLPNO WND DATA ESTMD
  • 061906Z AUTO 32005KT 9999 -RA FEW040 SCT100 BKN120 16/11 A3005 RMK AO2 LTG DSNT W-E TSE06 SLPNO WND DATA ESTMD

TAF AMD TAF OAJL
Valid from the 06 at 20:00 until the 07 at 22:00 UTC


062023Z 0620/0722 22006KT 8000 -SHRA VCTS BKN060CB QNH2999INS
TEMPO 0620/0623 8000 -TSRA BKN060CB
TEMPO 0623/0701 9000 -SHRA VCTS BKN060CB
BECMG 0702/0703 VRB06KT 8000 BR VCSH BKN040 QNH2998INS
BECMG 0704/0705 VRB06KT 9999 NSW BKN060 QNH3003INS
BECMG 0710/0711 VRB06KT 9999 SCT080 QNH3002INS TX25/0711Z TN12/0701Z



MET'MAP, your aeronautical weather chart ! - Copyright ORBIFLY December 2007 - Disclaimer

ORBIFLY MET'MAP TEAM :

Programming & Development : Alexandra Zaïnal
Concept & original design : Baudouin d'Aumeries
Assistance for programming : Marc-Olivier Méhu
Technical & hardware support : Manuel Goepfert

Contact : metmap@orbifly.com




SOURCES & CREDITS :

   NOAA       Earth
Advisory